Friday, February 23, 2018, 1:44 PM EST
Back to Local

KUCP, New Castle, New Castle Municipal Airport

Location: Edinburg, PA, United States Lat: 41.025
Local Time: 1:44 PM EST (18:44 GMT) Lon: -80.413
Time Zone: US/Eastern Elev: 1072 ft

Show me the last for .
Show Decoded

2018-02-23 12:56 METAR KUCP 231756Z AUTO VRB04KT 10SM OVC007 11/11 A3018 RMK AO2 RAE34 SLP238
                 P0000 60012 T01110111 10111 20056 56021 =
2018-02-23 12:43 METAR KUCP 231743Z AUTO 17007KT 150V220 10SM OVC007 11/11 A3018 RMK AO2 RAE34
                 P0000 =
2018-02-23 12:26 METAR KUCP 231726Z AUTO VRB05KT 8SM -RA OVC005 10/10 A3018 RMK AO2 CIG 004V009
                 P0000 =
2018-02-23 11:56 METAR KUCP 231656Z AUTO VRB05KT 7SM -RA OVC003 09/09 A3019 RMK AO2 RAE31B50
                 SLP245 P0003 T00940094 =
2018-02-23 10:56 METAR KUCP 231556Z AUTO 15008KT 5SM RA BR OVC003 08/08 A3020 RMK AO2 SLP249
                 P0006 T00830083 =
2018-02-23 09:56 METAR KUCP 231456Z AUTO 00000KT 6SM -RA BR OVC003 07/07 A3024 RMK AO2 SLP262
                 P0002 60003 T00720072 56027 =
2018-02-23 09:25 METAR KUCP 231425Z AUTO 00000KT 4SM RA BR OVC003 07/07 A3027 RMK AO2 P0000 =
2018-02-23 09:10 METAR KUCP 231410Z AUTO 16003KT 2 1/2SM -RA BR OVC003 06/06 A3027 RMK AO2 P0000
                 TSNO =
2018-02-23 08:56 METAR KUCP 231356Z AUTO 12003KT 1 3/4SM -RA BR OVC003 06/06 A3028 RMK AO2 SLP276
                 P0001 T00610061 =
2018-02-23 08:40 METAR KUCP 231340Z AUTO 00000KT 1 1/4SM -RA BR OVC003 06/06 A3030 RMK AO2 P0000
                 =
2018-02-23 08:19 METAR KUCP 231319Z AUTO 30004KT 3/4SM -RA BR OVC003 06/06 A3030 RMK AO2 P0000
                 RVRNO =
2018-02-23 08:15 METAR KUCP 231315Z AUTO 31004KT 1 1/2SM -RA BR OVC003 06/06 A3030 RMK AO2 P0000
                 =
2018-02-23 07:56 METAR KUCP 231256Z AUTO VRB03KT 9SM -RA OVC003 06/06 A3028 RMK AO2 RAB11 SLP276
                 P0000 T00610061 =
2018-02-23 07:31 METAR KUCP 231231Z AUTO VRB03KT 3SM -RA BR OVC003 06/06 A3030 RMK AO2 RAB11
                 P0000 =
2018-02-23 07:19 METAR KUCP 231219Z AUTO 13003KT 1 1/2SM -RA BR OVC003 06/06 A3030 RMK AO2 RAB11
                 P0000 =
2018-02-23 06:56 METAR KUCP 231156Z AUTO 00000KT 2 1/2SM BR OVC003 06/06 A3032 RMK AO2 SLP290
                 60000 70023 T00560056 10056 20044 58010 =
2018-02-23 06:41 METAR KUCP 231141Z AUTO VRB03KT 2 1/2SM BR OVC003 05/05 A3032 RMK AO2 =
2018-02-23 05:56 METAR KUCP 231056Z AUTO VRB03KT 4SM BR OVC003 05/05 A3033 RMK AO2 RAB04E44
                 SLP293 P0000 T00500050 =
2018-02-23 05:17 METAR KUCP 231017Z AUTO 15003KT 2 1/2SM -RA BR OVC003 05/05 A3034 RMK AO2 VIS
                 2V3 RAB04 P0000 =
2018-02-23 05:03 METAR KUCP 231003Z AUTO 00000KT 1 3/4SM BR OVC003 05/05 A3035 RMK AO2 =
2018-02-23 04:56 METAR KUCP 230956Z AUTO 00000KT 2 1/2SM BR OVC005 05/05 A3035 RMK AO2 SLP299
                 T00500050 =
2018-02-23 03:56 METAR KUCP 230856Z AUTO 14003KT 7SM OVC005 05/05 A3035 RMK AO2 SLP301 T00500050
                 56020 =
2018-02-23 03:47 METAR KUCP 230847Z AUTO VRB04KT 9SM OVC005 05/05 A3036 RMK AO2 =
2018-02-23 02:56 METAR KUCP 230756Z AUTO VRB03KT 10SM OVC007 05/04 A3037 RMK AO2 SLP307 T00500044
                 =
2018-02-23 01:56 METAR KUCP 230656Z AUTO 12003KT 10SM OVC007 05/04 A3042 RMK AO2 SLP323 T00500044
                 =
2018-02-23 00:56 METAR KUCP 230556Z AUTO 00000KT 10SM OVC009 05/04 A3044 RMK AO2 SLP331 T00500039
                 10061 20044 55015 =
2018-02-22 23:56 METAR KUCP 230456Z AUTO 12007KT 10SM OVC009 04/04 A3043 RMK AO2 SLP328 T00440039
                 400830017 =
2018-02-22 23:40 METAR KUCP 230440Z AUTO 11007KT 10SM OVC009 04/04 A3043 RMK AO2 =
2018-02-22 22:56 METAR KUCP 230356Z AUTO VRB06KT 10SM OVC011 05/04 A3046 RMK AO2 SLP338 T00500039
                 =
2018-02-22 21:56 METAR KUCP 230256Z AUTO 08006KT 10SM OVC013 05/03 A3048 RMK AO2 SLP346 T00500033
                 53000 =
2018-02-22 20:56 METAR KUCP 230156Z AUTO 10005KT 10SM OVC015 06/03 A3048 RMK AO2 SLP347 T00560033
                 =
2018-02-22 19:56 METAR KUCP 230056Z AUTO 13006KT 10SM OVC017 06/03 A3047 RMK AO2 SLP343 T00560033
                 =
2018-02-22 18:56 METAR KUCP 222356Z AUTO 08004KT 10SM OVC019 06/04 A3048 RMK AO2 SLP346 60001
                 T00610039 10083 20044 50009 =
2018-02-22 17:56 METAR KUCP 222256Z AUTO 11008KT 10SM OVC019 07/04 A3050 RMK AO2 SLP351 T00670039
                 =
2018-02-22 16:56 METAR KUCP 222156Z AUTO 08008KT 10SM OVC021 07/04 A3046 RMK AO2 SLP338 T00720039
                 =
2018-02-22 15:56 METAR KUCP 222056Z AUTO 08007KT 10SM BKN019 OVC036 08/04 A3045 RMK AO2 SLP335
                 60001 T00830044 56036 =
2018-02-22 14:56 METAR KUCP 221956Z AUTO 08009KT 10SM OVC017 08/06 A3048 RMK AO2 SLP345 T00780056
                 =
2018-02-22 14:37 METAR KUCP 221937Z AUTO 09012G17KT 10SM OVC017 07/04 A3048 RMK AO2 PRESFR =
2018-02-22 13:56 METAR KUCP 221856Z AUTO 05009KT 10SM FEW007 OVC011 06/05 A3051 RMK AO2 RAE33
                 SLP355 P0001 T00610050 =

Support USWX by starting your Amazon purchase here.